Terminal Aerodrome Forecast
Issued by NWS

Current Version | Previous Version | Text Only | Print | Product List | Glossary On
Versions: 1 2 3 4 5 6 7 8 9 10 11 12 13 14 15 16 17 18 19 20 21
000
FTUS43 KBIS 141100
TAFJMS
TAF
KJMS 141131Z 1412/1512 35012G17KT P6SM VCSH BKN035 BKN060
      TEMPO 1412/1415 SCT018 BKN025
     FM141500 34018G25KT P6SM SCT030 BKN040 BKN060
     FM141900 34019G27KT P6SM BKN060
     FM150100 34007KT P6SM SCT060
     FM150600 30005KT P6SM SKC=

USA.gov is the U.S. government's official web portal to all federal, state and local government web resources and services.